createdAt,value
2018-05-02T00:01:01.915Z,3.03
2018-05-02T00:03:29.529Z,3.10
2018-05-02T00:05:57.155Z,3.20
2018-05-02T00:08:24.824Z,3.13
2018-05-02T00:10:52.425Z,3.40
2018-05-02T00:13:20.774Z,3.37
2018-05-02T00:15:48.415Z,3.50
2018-05-02T00:18:15.994Z,3.37
2018-05-02T00:20:43.632Z,3.30
2018-05-02T00:23:11.856Z,3.10
2018-05-02T00:25:40.241Z,3.50
2018-05-02T00:28:08.582Z,3.10
2018-05-02T00:30:36.214Z,2.90
2018-05-02T00:33:04.498Z,3.30
2018-05-02T00:35:32.103Z,3.23
2018-05-02T00:37:59.744Z,3.03
2018-05-02T00:40:28.083Z,3.50
2018-05-02T00:42:55.734Z,3.67
2018-05-02T00:45:23.329Z,3.60
2018-05-02T00:47:50.903Z,3.60
2018-05-02T00:50:18.506Z,3.80
2018-05-02T00:52:46.493Z,3.33
2018-05-02T00:55:14.114Z,4.47
2018-05-02T00:57:42.502Z,4.20
2018-05-02T01:00:10.904Z,4.20
2018-05-02T01:02:39.162Z,4.63
2018-05-02T01:05:07.656Z,4.90
2018-05-02T01:07:35.320Z,4.73
2018-05-02T01:10:02.976Z,4.30
2018-05-02T01:12:30.613Z,5.07
2018-05-02T01:14:59.041Z,4.90
2018-05-02T01:17:26.705Z,4.97
2018-05-02T01:19:54.319Z,4.53
2018-05-02T01:22:22.669Z,4.70
2018-05-02T01:24:50.292Z,5.10
2018-05-02T01:27:17.931Z,4.70
2018-05-02T01:29:45.528Z,4.80
2018-05-02T01:32:13.195Z,5.10
2018-05-02T01:34:40.804Z,5.33
2018-05-02T01:37:08.432Z,5.03
2018-05-02T01:39:36.073Z,5.73
2018-05-02T01:42:03.733Z,4.83
2018-05-02T01:44:31.464Z,4.80
2018-05-02T01:47:11.016Z,5.40
2018-05-02T01:49:38.643Z,5.57
2018-05-02T01:52:07.039Z,5.40
2018-05-02T01:54:34.722Z,5.10
2018-05-02T01:57:02.365Z,5.20
2018-05-02T01:59:30.107Z,5.10
2018-05-02T02:01:57.721Z,5.87
2018-05-02T02:04:25.381Z,5.43
2018-05-02T02:06:53.215Z,5.77
2018-05-02T02:09:20.811Z,5.50
2018-05-02T02:11:48.384Z,5.93
2018-05-02T02:14:16.021Z,5.53
2018-05-02T02:16:43.690Z,5.40
2018-05-02T02:19:11.280Z,5.40
2018-05-02T02:21:39.662Z,5.60
2018-05-02T02:24:08.082Z,5.50
2018-05-02T02:26:35.733Z,5.17
2018-05-02T02:29:03.309Z,5.30
2018-05-02T02:31:30.922Z,5.43
2018-05-02T02:34:00.211Z,5.80
2018-05-02T02:36:28.547Z,5.40
2018-05-02T02:38:56.181Z,5.30
2018-05-02T02:41:24.412Z,5.47
2018-05-02T02:43:52.065Z,5.20
2018-05-02T02:46:19.692Z,5.33
2018-05-02T02:48:48.208Z,5.67
2018-05-02T02:51:15.813Z,5.17
2018-05-02T02:53:43.480Z,4.60
2018-05-02T02:56:11.171Z,4.60
2018-05-02T02:58:38.785Z,4.30
2018-05-02T03:01:06.441Z,4.67
2018-05-02T03:03:34.077Z,4.20
2018-05-02T03:06:01.652Z,4.60
2018-05-02T03:08:30.017Z,4.20
2018-05-02T03:10:58.376Z,5.17
2018-05-02T03:13:25.977Z,4.20
2018-05-02T03:15:54.338Z,4.10
2018-05-02T03:18:22.728Z,4.30
2018-05-02T03:20:51.124Z,4.60
2018-05-02T03:23:18.744Z,4.77
2018-05-02T03:25:46.372Z,4.57
2018-05-02T03:28:13.956Z,4.30
2018-05-02T03:30:41.556Z,4.63
2018-05-02T03:33:09.131Z,4.93
2018-05-02T03:35:36.768Z,5.20
2018-05-02T03:38:05.123Z,6.10
2018-05-02T03:40:34.235Z,5.90
2018-05-02T03:43:02.643Z,5.10
2018-05-02T03:45:30.256Z,5.63
2018-05-02T03:47:57.905Z,5.50
2018-05-02T03:50:27.697Z,5.30
2018-05-02T03:52:55.609Z,5.63
2018-05-02T03:55:23.240Z,5.50
2018-05-02T03:57:50.875Z,6.70
2018-05-02T04:00:30.364Z,5.67
2018-05-02T04:03:10.726Z,5.20
2018-05-02T04:05:51.083Z,5.00
2018-05-02T04:08:19.493Z,5.67
2018-05-02T04:10:47.169Z,5.40
2018-05-02T04:13:14.804Z,5.30
2018-05-02T04:15:42.385Z,5.90
2018-05-02T04:18:10.010Z,5.20
2018-05-02T04:20:38.409Z,5.43
2018-05-02T04:23:06.031Z,5.37
2018-05-02T04:25:33.623Z,5.30
2018-05-02T04:28:01.205Z,5.33
2018-05-02T04:30:28.846Z,5.50
2018-05-02T04:32:57.271Z,5.30
2018-05-02T04:35:24.930Z,5.53
2018-05-02T04:37:52.529Z,5.40
2018-05-02T04:40:20.933Z,6.40
2018-05-02T04:42:48.575Z,5.60
2018-05-02T04:45:16.357Z,5.43
2018-05-02T04:47:43.965Z,5.30
2018-05-02T04:50:11.612Z,5.60
2018-05-02T04:52:39.313Z,5.37
2018-05-02T04:55:06.891Z,6.30
2018-05-02T04:57:34.544Z,6.23
2018-05-02T05:00:02.126Z,6.77
2018-05-02T05:02:29.746Z,6.20
2018-05-02T05:04:58.113Z,6.57
2018-05-02T05:07:27.342Z,6.97
2018-05-02T05:09:54.954Z,6.90
2018-05-02T05:12:22.552Z,6.93
2018-05-02T05:14:50.205Z,5.80
2018-05-02T05:17:18.605Z,6.50
2018-05-02T05:19:46.268Z,5.70
2018-05-02T05:22:13.878Z,5.50
2018-05-02T05:24:41.520Z,4.97
2018-05-02T05:27:09.427Z,4.93
2018-05-02T05:29:37.825Z,4.83
2018-05-02T05:32:05.423Z,4.50
2018-05-02T05:34:32.998Z,5.37
2018-05-02T05:37:00.645Z,5.43
2018-05-02T05:39:29.133Z,5.23
2018-05-02T05:41:56.751Z,5.03
2018-05-02T05:44:24.700Z,5.20
2018-05-02T05:46:52.326Z,6.03
2018-05-02T05:49:21.992Z,4.80
2018-05-02T05:51:49.649Z,4.23
2018-05-02T05:54:17.399Z,4.70
2018-05-02T05:56:45.846Z,4.83
2018-05-02T05:59:13.496Z,5.40
2018-05-02T06:01:41.158Z,4.87
2018-05-02T06:04:09.436Z,4.70
2018-05-02T06:06:37.010Z,4.53
2018-05-02T06:09:06.179Z,5.30
2018-05-02T06:11:33.795Z,5.40
2018-05-02T06:14:01.436Z,4.90
2018-05-02T06:16:29.896Z,4.93
2018-05-02T06:18:58.154Z,4.83
2018-05-02T06:21:25.894Z,4.60
2018-05-02T06:23:53.549Z,4.33
2018-05-02T06:26:21.470Z,4.70
2018-05-02T06:28:49.894Z,4.50
2018-05-02T06:31:17.519Z,4.57
2018-05-02T06:33:45.913Z,4.10
2018-05-02T06:36:13.550Z,4.80
2018-05-02T06:38:41.934Z,4.77
2018-05-02T06:41:10.291Z,4.00
2018-05-02T06:43:37.961Z,3.97
2018-05-02T06:46:05.579Z,4.17
2018-05-02T06:48:33.243Z,4.40
2018-05-02T06:51:00.837Z,4.27
2018-05-02T06:53:28.419Z,4.40
2018-05-02T06:55:56.978Z,4.17
2018-05-02T06:58:24.573Z,4.80
2018-05-02T07:00:52.265Z,4.60
2018-05-02T07:03:19.878Z,3.93
2018-05-02T07:05:48.289Z,4.70
2018-05-02T07:08:15.872Z,4.27
2018-05-02T07:10:43.487Z,4.53
2018-05-02T07:13:11.860Z,4.00
2018-05-02T07:15:40.219Z,3.80
2018-05-02T07:18:09.376Z,4.27
2018-05-02T07:20:36.997Z,4.50
2018-05-02T07:23:04.683Z,4.43
2018-05-02T07:25:32.287Z,4.03
2018-05-02T07:27:59.917Z,4.13
2018-05-02T07:30:27.755Z,4.17
2018-05-02T07:32:55.467Z,3.67
2018-05-02T07:35:23.035Z,4.27
2018-05-02T07:37:50.713Z,4.33
2018-05-02T07:40:19.821Z,3.90
2018-05-02T07:42:48.219Z,4.70
2018-05-02T07:45:15.842Z,4.17
2018-05-02T07:47:43.480Z,4.10
2018-05-02T07:50:11.854Z,4.60
2018-05-02T07:52:44.298Z,4.73
2018-05-02T07:55:12.006Z,4.37
2018-05-02T07:57:39.637Z,4.50
2018-05-02T08:00:07.288Z,4.53
2018-05-02T08:02:34.889Z,4.60
2018-05-02T08:05:05.152Z,4.87
2018-05-02T08:07:35.902Z,4.77
2018-05-02T08:10:03.679Z,4.97
2018-05-02T08:12:34.502Z,4.37
2018-05-02T08:15:04.182Z,5.03
2018-05-02T08:17:33.242Z,4.63
2018-05-02T08:20:00.853Z,4.10
2018-05-02T08:22:28.475Z,4.80
2018-05-02T08:24:58.095Z,4.47
2018-05-02T08:27:26.486Z,4.17
2018-05-02T08:29:54.076Z,4.50
2018-05-02T08:32:21.697Z,4.60
2018-05-02T08:34:50.295Z,3.87
2018-05-02T08:37:17.882Z,3.90
2018-05-02T08:39:46.372Z,3.90
2018-05-02T08:42:13.984Z,4.10
2018-05-02T08:44:42.394Z,4.20
2018-05-02T08:47:10.009Z,4.20
2018-05-02T08:49:38.545Z,4.70
2018-05-02T08:52:06.194Z,4.50
2018-05-02T08:54:33.860Z,4.03
2018-05-02T08:57:01.471Z,3.60
2018-05-02T08:59:29.895Z,3.70
2018-05-02T09:01:57.584Z,4.20
2018-05-02T09:04:26.039Z,3.70
2018-05-02T09:06:53.677Z,4.77
2018-05-02T09:09:21.337Z,4.10
2018-05-02T09:11:48.957Z,3.50
2018-05-02T09:14:16.581Z,3.90
2018-05-02T09:16:44.222Z,3.37
2018-05-02T09:19:11.866Z,3.33
2018-05-02T09:21:39.475Z,3.63
2018-05-02T09:24:07.121Z,3.80
2018-05-02T09:26:35.090Z,4.07
2018-05-02T09:29:02.753Z,3.53
2018-05-02T09:31:30.385Z,3.47
2018-05-02T09:33:58.028Z,3.27
2018-05-02T09:36:26.476Z,3.60
2018-05-02T09:38:54.854Z,3.80
2018-05-02T09:41:22.480Z,3.47
2018-05-02T09:43:50.131Z,3.40
2018-05-02T09:46:17.748Z,3.13
2018-05-02T09:48:46.275Z,3.03
2018-05-02T09:51:13.956Z,3.20
2018-05-02T09:53:41.729Z,3.43
2018-05-02T09:56:09.430Z,3.13
2018-05-02T09:58:37.882Z,3.10
2018-05-02T10:01:05.629Z,3.10
2018-05-02T10:03:33.286Z,3.20
2018-05-02T10:06:00.892Z,3.80
2018-05-02T10:08:29.238Z,3.97
2018-05-02T10:10:56.881Z,3.80
2018-05-02T10:13:24.475Z,5.03
2018-05-02T10:15:52.095Z,3.70
2018-05-02T10:18:20.748Z,3.63
2018-05-02T10:20:48.368Z,3.67
2018-05-02T10:23:16.998Z,3.50
2018-05-02T10:25:44.807Z,3.47
2018-05-02T10:28:12.577Z,3.77
2018-05-02T10:30:40.455Z,3.40
2018-05-02T10:33:08.077Z,4.10
2018-05-02T10:35:35.686Z,3.57
2018-05-02T10:38:04.048Z,3.60
2018-05-02T10:40:31.674Z,3.60
2018-05-02T10:42:59.314Z,3.40
2018-05-02T10:45:27.561Z,3.70
2018-05-02T10:47:55.976Z,3.50
2018-05-02T10:52:56.739Z,3.80
2018-05-02T10:55:24.406Z,3.67
2018-05-02T10:57:52.062Z,4.37
2018-05-02T11:00:20.042Z,4.50
2018-05-02T11:02:47.715Z,4.27
2018-05-02T11:05:15.397Z,4.63
2018-05-02T11:07:43.846Z,4.10
2018-05-02T11:10:11.458Z,4.30
2018-05-02T11:12:39.537Z,3.80
2018-05-02T11:15:07.162Z,3.63
2018-05-02T11:17:34.822Z,3.67
2018-05-02T11:20:03.300Z,5.20
2018-05-02T11:22:30.951Z,3.70
2018-05-02T11:24:59.234Z,3.57
2018-05-02T11:27:26.890Z,3.40
2018-05-02T11:29:54.624Z,4.50
2018-05-02T11:32:22.281Z,4.30
2018-05-02T11:34:49.932Z,3.57
2018-05-02T11:37:17.690Z,3.63
2018-05-02T11:39:45.321Z,4.10
2018-05-02T11:42:13.823Z,3.00
2018-05-02T11:44:41.446Z,3.27
2018-05-02T11:47:10.633Z,3.90
2018-05-02T11:49:39.909Z,2.47
2018-05-02T11:52:07.553Z,3.30
2018-05-02T11:54:35.330Z,4.63
2018-05-02T11:57:02.953Z,3.73
2018-05-02T11:59:31.013Z,2.43
2018-05-02T12:01:59.490Z,2.60
2018-05-02T12:04:27.988Z,3.10
2018-05-02T12:06:55.613Z,3.40
2018-05-02T12:09:23.265Z,2.90
2018-05-02T12:11:51.626Z,3.30
2018-05-02T12:14:19.305Z,4.67
2018-05-02T12:16:48.500Z,3.50
2018-05-02T12:19:16.133Z,3.47
2018-05-02T12:21:43.808Z,3.40
2018-05-02T12:24:11.667Z,3.23
2018-05-02T12:26:39.946Z,5.30
2018-05-02T12:29:07.580Z,5.30
2018-05-02T12:31:35.269Z,4.37
2018-05-02T12:34:02.906Z,3.53
2018-05-02T12:36:30.898Z,3.57
2018-05-02T12:38:59.412Z,3.30
2018-05-02T12:41:27.806Z,3.33
2018-05-02T12:43:56.253Z,3.33
2018-05-02T12:46:23.910Z,2.90
2018-05-02T12:48:51.541Z,2.80
2018-05-02T12:51:19.245Z,3.40
2018-05-02T12:53:47.673Z,3.53
2018-05-02T12:56:15.439Z,4.70
2018-05-02T12:58:43.372Z,2.97
2018-05-02T13:01:12.573Z,2.90
2018-05-02T13:03:41.022Z,2.77
2018-05-02T13:06:08.857Z,2.37
2018-05-02T13:08:36.537Z,2.43
2018-05-02T13:11:04.727Z,3.20
2018-05-02T13:13:32.964Z,3.10
2018-05-02T13:16:01.481Z,2.80
2018-05-02T13:18:29.132Z,2.43
2018-05-02T13:20:56.894Z,2.23
2018-05-02T13:23:24.687Z,2.50
2018-05-02T13:25:53.177Z,2.87
2018-05-02T13:28:21.675Z,3.27
2018-05-02T13:30:49.381Z,2.40
2018-05-02T13:33:17.270Z,2.77
2018-05-02T13:35:44.940Z,2.50
2018-05-02T13:38:13.528Z,2.10
2018-05-02T13:40:42.096Z,2.07
2018-05-02T13:43:09.834Z,2.00
2018-05-02T13:45:37.598Z,2.17
2018-05-02T13:48:05.233Z,2.10
2018-05-02T13:50:32.902Z,2.30
2018-05-02T13:53:00.561Z,2.23
2018-05-02T13:55:28.383Z,2.40
2018-05-02T13:57:56.218Z,2.40
2018-05-02T14:00:23.865Z,2.30
2018-05-02T14:02:51.482Z,2.50
2018-05-02T14:05:19.168Z,2.50
2018-05-02T14:07:46.975Z,2.33
2018-05-02T14:10:15.394Z,3.63
2018-05-02T14:12:43.113Z,2.27
2018-05-02T14:15:10.849Z,6.90
2018-05-02T14:17:38.576Z,2.37
2018-05-02T14:20:07.076Z,1.80
2018-05-02T14:22:34.654Z,2.50
2018-05-02T14:25:02.448Z,2.13
2018-05-02T14:27:30.884Z,2.20
2018-05-02T14:29:58.521Z,1.97
2018-05-02T14:32:26.109Z,1.97
2018-05-02T14:34:53.761Z,1.93
2018-05-02T14:37:21.415Z,2.10
2018-05-02T14:39:49.097Z,2.60
2018-05-02T14:42:16.812Z,1.93
2018-05-02T14:44:45.234Z,2.43
2018-05-02T14:47:13.003Z,2.70
2018-05-02T14:49:40.610Z,2.23
2018-05-02T14:52:09.011Z,2.10
2018-05-02T14:54:36.665Z,2.17
2018-05-02T14:57:04.324Z,2.50
2018-05-02T14:59:32.776Z,3.00
2018-05-02T15:02:00.440Z,2.13
2018-05-02T15:04:28.033Z,2.27
2018-05-02T15:06:55.680Z,2.07
2018-05-02T15:09:24.061Z,3.40
2018-05-02T15:11:52.550Z,3.00
2018-05-02T15:14:20.205Z,2.10
2018-05-02T15:16:47.871Z,2.23
2018-05-02T15:19:16.309Z,2.07
2018-05-02T15:21:43.972Z,2.43
2018-05-02T15:24:11.628Z,2.23
2018-05-02T15:26:39.297Z,2.07
2018-05-02T15:29:06.925Z,2.20
2018-05-02T15:31:35.277Z,2.07
2018-05-02T15:34:02.883Z,2.70
2018-05-02T15:36:30.507Z,2.47
2018-05-02T15:38:58.119Z,3.00
2018-05-02T15:41:27.807Z,2.00
2018-05-02T15:43:55.476Z,2.47
2018-05-02T15:46:23.324Z,2.50
2018-05-02T15:48:51.092Z,3.00
2018-05-02T15:51:18.705Z,2.10
2018-05-02T15:53:46.353Z,2.70
2018-05-02T15:56:13.952Z,2.50
2018-05-02T15:58:42.686Z,3.07
2018-05-02T16:01:10.325Z,2.60
2018-05-02T16:03:37.951Z,3.43
2018-05-02T16:06:05.590Z,4.23
2018-05-02T16:08:33.962Z,2.60
2018-05-02T16:11:02.349Z,2.30
2018-05-02T16:13:30.786Z,2.40
2018-05-02T16:15:58.437Z,2.73
2018-05-02T16:18:26.044Z,2.30
2018-05-02T16:20:54.416Z,2.40
2018-05-02T16:23:23.521Z,2.70
2018-05-02T16:25:51.923Z,2.33
2018-05-02T16:28:19.608Z,2.50
2018-05-02T16:30:47.244Z,2.40
2018-05-02T16:33:14.877Z,2.63
2018-05-02T16:35:43.257Z,2.57
2018-05-02T16:38:11.690Z,3.13
2018-05-02T16:40:39.327Z,2.40
2018-05-02T16:43:06.975Z,2.20
2018-05-02T16:45:34.626Z,2.43
2018-05-02T16:48:02.221Z,1.93
2018-05-02T16:50:29.803Z,2.40
2018-05-02T16:52:57.503Z,2.70
2018-05-02T16:55:25.100Z,2.50
2018-05-02T16:57:52.736Z,3.57
2018-05-02T17:00:20.888Z,3.33
2018-05-02T17:02:49.261Z,3.20
2018-05-02T17:05:17.675Z,2.80
2018-05-02T17:07:45.287Z,3.00
2018-05-02T17:10:12.868Z,4.00
2018-05-02T17:12:41.284Z,3.50
2018-05-02T17:15:08.863Z,3.77
2018-05-02T17:17:36.475Z,2.80
2018-05-02T17:20:04.056Z,3.10
2018-05-02T17:22:31.641Z,2.93
2018-05-02T17:24:59.302Z,3.20
2018-05-02T17:27:26.969Z,3.00
2018-05-02T17:29:54.592Z,3.53
2018-05-02T17:32:22.175Z,3.00
2018-05-02T17:34:49.800Z,3.10
2018-05-02T17:37:17.465Z,2.90
2018-05-02T17:39:45.062Z,2.70
2018-05-02T17:42:12.667Z,2.40
2018-05-02T17:44:41.121Z,2.87
2018-05-02T17:47:08.740Z,2.90
2018-05-02T17:49:36.412Z,3.00
2018-05-02T17:52:04.019Z,2.70
2018-05-02T17:54:32.385Z,2.80
2018-05-02T17:57:00.264Z,2.77
2018-05-02T17:59:28.629Z,3.17
2018-05-02T18:01:56.993Z,2.50
2018-05-02T18:04:24.625Z,3.53
2018-05-02T18:06:52.249Z,3.90
2018-05-02T18:09:19.909Z,2.90
2018-05-02T18:11:47.593Z,3.27
2018-05-02T18:14:15.206Z,3.20
2018-05-02T18:16:42.858Z,2.77
2018-05-02T18:19:10.464Z,3.10
2018-05-02T18:21:38.163Z,2.67
2018-05-02T18:24:05.809Z,3.50
2018-05-02T18:26:33.687Z,3.30
2018-05-02T18:29:01.294Z,3.27
2018-05-02T18:31:29.683Z,3.13
2018-05-02T18:33:57.333Z,3.53
2018-05-02T18:36:25.716Z,2.70
2018-05-02T18:38:53.519Z,2.70
2018-05-02T18:41:21.932Z,2.80
2018-05-02T18:43:49.674Z,3.13
2018-05-02T18:46:17.268Z,2.90
2018-05-02T18:48:45.652Z,3.43
2018-05-02T18:51:14.040Z,2.97
2018-05-02T18:53:42.042Z,3.10
2018-05-02T18:56:09.710Z,2.97
2018-05-02T18:58:37.396Z,3.17
2018-05-02T19:01:05.011Z,5.40
2018-05-02T19:03:37.941Z,3.90
2018-05-02T19:06:06.099Z,3.23
2018-05-02T19:08:36.296Z,2.87
2018-05-02T19:11:04.374Z,3.33
2018-05-02T19:13:32.752Z,2.93
2018-05-02T19:16:01.725Z,3.87
2018-05-02T19:18:36.802Z,3.13
2018-05-02T19:21:05.841Z,3.23
2018-05-02T19:23:34.226Z,3.40
2018-05-02T19:26:07.572Z,3.33
2018-05-02T19:28:36.558Z,3.83
2018-05-02T19:31:10.695Z,3.20
2018-05-02T19:33:45.171Z,3.33
2018-05-02T19:36:12.798Z,3.80
2018-05-02T19:38:40.494Z,3.43
2018-05-02T19:41:13.823Z,5.27
2018-05-02T19:43:47.771Z,4.23
2018-05-02T19:46:17.131Z,3.50
2018-05-02T19:48:44.769Z,3.57
2018-05-02T19:51:18.341Z,3.27
2018-05-02T19:53:45.982Z,2.97
2018-05-02T19:56:14.356Z,3.17
2018-05-02T19:58:43.422Z,3.20
2018-05-02T20:01:16.752Z,3.50
2018-05-02T20:03:44.433Z,3.10
2018-05-02T20:06:12.048Z,2.33
2018-05-02T20:08:46.237Z,3.33
2018-05-02T20:11:19.634Z,3.23
2018-05-02T20:13:53.200Z,3.00
2018-05-02T20:16:21.191Z,3.47
2018-05-02T20:18:48.943Z,3.53
2018-05-02T20:21:16.711Z,3.53
2018-05-02T20:23:45.191Z,3.47
2018-05-02T20:26:15.407Z,3.70
2018-05-02T20:28:43.210Z,3.60
2018-05-02T20:31:10.914Z,3.53
2018-05-02T20:33:38.715Z,3.43
2018-05-02T20:36:06.451Z,3.50
2018-05-02T20:38:34.923Z,3.30
2018-05-02T20:41:02.805Z,3.53
2018-05-02T20:43:30.674Z,3.60
2018-05-02T20:45:58.439Z,3.10
2018-05-02T20:48:26.195Z,3.03
2018-05-02T20:50:55.215Z,3.50
2018-05-02T20:53:22.951Z,3.37
2018-05-02T20:55:50.572Z,3.60
2018-05-02T20:58:18.998Z,3.30
2018-05-02T21:00:46.603Z,3.63
2018-05-02T21:03:14.979Z,3.87
2018-05-02T21:05:43.373Z,3.80
2018-05-02T21:08:11.028Z,3.93
2018-05-02T21:10:39.380Z,3.80
2018-05-02T21:13:07.801Z,3.47
2018-05-02T21:15:35.489Z,3.90
2018-05-02T21:18:03.084Z,3.90
2018-05-02T21:20:30.930Z,4.07
2018-05-02T21:22:58.577Z,3.80
2018-05-02T21:25:26.569Z,3.80
2018-05-02T21:28:01.268Z,4.13
2018-05-02T21:30:45.145Z,3.63
2018-05-02T21:33:12.951Z,3.73
2018-05-02T21:35:40.658Z,4.17
2018-05-02T21:38:08.639Z,3.93
2018-05-02T21:40:37.099Z,3.80
2018-05-02T21:43:05.961Z,3.77
2018-05-02T21:45:34.399Z,3.40
2018-05-02T21:48:03.519Z,4.33
2018-05-02T21:50:31.956Z,3.93
2018-05-02T21:53:01.092Z,4.37
2018-05-02T21:55:28.711Z,4.20
2018-05-02T21:57:56.367Z,3.70
2018-05-02T22:00:23.981Z,3.70
2018-05-02T22:02:51.629Z,4.00
2018-05-02T22:05:19.337Z,4.20
2018-05-02T22:07:47.086Z,4.00
2018-05-02T22:10:15.561Z,4.27
2018-05-02T22:12:43.252Z,4.80
2018-05-02T22:15:10.917Z,5.10
2018-05-02T22:17:38.659Z,5.27
2018-05-02T22:20:06.344Z,5.17
2018-05-02T22:22:35.494Z,4.70
2018-05-02T22:25:03.102Z,4.87
2018-05-02T22:27:30.780Z,4.63
2018-05-02T22:29:59.183Z,4.87
2018-05-02T22:32:27.442Z,4.53
2018-05-02T22:34:55.791Z,4.00
2018-05-02T22:37:23.642Z,4.70
2018-05-02T22:39:51.263Z,4.57
2018-05-02T22:42:18.900Z,4.60
2018-05-02T22:44:47.284Z,3.87
2018-05-02T22:47:15.664Z,4.40
2018-05-02T22:49:44.079Z,4.50
2018-05-02T22:52:11.738Z,4.30
2018-05-02T22:54:39.345Z,3.80
2018-05-02T22:57:07.788Z,3.93
2018-05-02T22:59:35.411Z,3.87
2018-05-02T23:02:03.025Z,4.17
2018-05-02T23:04:30.692Z,4.10
2018-05-02T23:06:59.803Z,3.90
2018-05-02T23:09:27.389Z,4.17
2018-05-02T23:11:55.061Z,4.40
2018-05-02T23:14:22.674Z,4.70
2018-05-02T23:16:51.136Z,4.63
2018-05-02T23:19:18.790Z,4.70
2018-05-02T23:21:46.457Z,4.93
2018-05-02T23:24:14.118Z,4.10
2018-05-02T23:26:41.741Z,4.27
2018-05-02T23:29:10.543Z,4.53
2018-05-02T23:31:39.073Z,4.40
2018-05-02T23:34:06.724Z,4.63
2018-05-02T23:36:34.560Z,4.67
2018-05-02T23:39:02.263Z,4.90
2018-05-02T23:41:30.638Z,4.63
2018-05-02T23:43:58.273Z,4.83
2018-05-02T23:46:26.601Z,5.10
2018-05-02T23:48:54.238Z,4.37
2018-05-02T23:51:21.907Z,4.80
2018-05-02T23:53:50.272Z,4.97
2018-05-02T23:56:19.354Z,5.13
2018-05-02T23:58:46.969Z,5.47
